Portada
METAR-TAF:

METAR-TAF

Aeroports :

Farnborough, Anglaterra

latitud: 51-17N, longitud: 000-46W, altitud: 65 m

Observació

L'informe es va fer fa 33 minuts, a les 10:50 UTC
Vent 7 kt del Sud-Est
Temperatura 6°C
Humitat 81%
Pressió 994 hPa
Visibilitat 10 km o més
Escasses núvols a una alçada de 900 ft
Cel ennuvolat a una alçada de 1900 ft

METAR: EGLF 141050Z 13007KT 9999 FEW009 BKN019 06/03 Q0994

Hora: 11:23 (11:23 UTC)

Pronòstic

L'informe es va fer fa 2 hores i 10 minuts, a les 09:13 UTC
Pronòstic vàlid del 14 a les 09 UTC al 14 a les 18 UTC
Vent 6 kt del Sud/Sud-Oest
Visibilitat 10 km o més
Núvols disperses a una alçada de 3000 ft
Temporalment
l' 14 a les 09 UTC al 14 a les 11 UTC
Cel ennuvolat a una alçada de 1200 ft
Probabilitat 30% :
Temporalment
l' 14 a les 16 UTC al 14 a les 18 UTC
Visibilitat: 6000 m
Cel ennuvolat a una alçada de 1400 ft
xàfecs de pluja

TAF: EGLF 140913Z 1409/1418 20006KT 9999 SCT030 TEMPO 1409/1411 BKN012 PROB30 TEMPO 1416/1418 6000 SHRA BKN014

Observacions i pronòstics meteorològics de més de 4000 aeroports (METAR i TAF).

Les estacions disponibles són els punts grocs i vermells al mapa.

Posi el ratolí al punt desitjat per veure el nom de l'estació.

Feu clic per veure les observacions i els pronòstics meteorològics.

Per canviar el mapa: feu clic els botons verds amb una creu de color negre per apropar; al botó verd amb un guió per allunyar la imatge; o en les fletxes verdes per a mapes adjacents.


METAR-TAF: